sensor_id;sensor_type;location;lat;lon;timestamp;P1;durP1;ratioP1;P2;durP2;ratioP2
45909;SDS011;31622;55.416;37.840;2023-04-24T00:02:12;13.43;;;7.43;;
45909;SDS011;31622;55.416;37.840;2023-04-24T00:04:38;8.68;;;6.15;;
45909;SDS011;31622;55.416;37.840;2023-04-24T00:07:10;12.20;;;6.20;;
45909;SDS011;31622;55.416;37.840;2023-04-24T00:09:36;13.18;;;6.60;;
45909;SDS011;31622;55.416;37.840;2023-04-24T00:12:02;13.05;;;6.68;;
45909;SDS011;31622;55.416;37.840;2023-04-24T00:14:30;16.02;;;6.68;;
45909;SDS011;31622;55.416;37.840;2023-04-24T00:16:56;8.68;;;6.07;;
45909;SDS011;31622;55.416;37.840;2023-04-24T00:19:22;13.40;;;6.22;;
45909;SDS011;31622;55.416;37.840;2023-04-24T00:21:47;10.63;;;6.30;;
45909;SDS011;31622;55.416;37.840;2023-04-24T00:24:15;8.73;;;6.13;;
45909;SDS011;31622;55.416;37.840;2023-04-24T00:26:42;11.43;;;6.30;;
45909;SDS011;31622;55.416;37.840;2023-04-24T00:29:07;10.85;;;5.95;;
45909;SDS011;31622;55.416;37.840;2023-04-24T00:31:33;13.55;;;6.18;;
45909;SDS011;31622;55.416;37.840;2023-04-24T00:34:02;10.40;;;6.00;;
45909;SDS011;31622;55.416;37.840;2023-04-24T00:36:28;8.93;;;6.03;;
45909;SDS011;31622;55.416;37.840;2023-04-24T00:38:55;9.25;;;6.20;;
45909;SDS011;31622;55.416;37.840;2023-04-24T00:41:22;10.00;;;6.18;;
45909;SDS011;31622;55.416;37.840;2023-04-24T00:43:49;15.13;;;6.63;;
45909;SDS011;31622;55.416;37.840;2023-04-24T00:46:16;10.60;;;5.50;;
45909;SDS011;31622;55.416;37.840;2023-04-24T00:48:42;9.10;;;5.88;;
45909;SDS011;31622;55.416;37.840;2023-04-24T00:51:08;8.73;;;5.20;;
45909;SDS011;31622;55.416;37.840;2023-04-24T00:53:34;10.18;;;6.22;;
45909;SDS011;31622;55.416;37.840;2023-04-24T00:56:00;8.48;;;5.50;;
45909;SDS011;31622;55.416;37.840;2023-04-24T00:58:27;11.40;;;6.13;;
45909;SDS011;31622;55.416;37.840;2023-04-24T01:00:53;11.25;;;6.15;;
45909;SDS011;31622;55.416;37.840;2023-04-24T01:03:24;8.88;;;6.25;;
45909;SDS011;31622;55.416;37.840;2023-04-24T01:05:51;7.10;;;5.70;;
45909;SDS011;31622;55.416;37.840;2023-04-24T01:08:18;8.95;;;5.97;;
45909;SDS011;31622;55.416;37.840;2023-04-24T01:10:45;9.10;;;6.25;;
45909;SDS011;31622;55.416;37.840;2023-04-24T01:13:11;9.07;;;6.43;;
45909;SDS011;31622;55.416;37.840;2023-04-24T01:15:37;12.00;;;5.97;;
45909;SDS011;31622;55.416;37.840;2023-04-24T01:18:03;10.00;;;6.30;;
45909;SDS011;31622;55.416;37.840;2023-04-24T01:20:29;10.32;;;6.20;;
45909;SDS011;31622;55.416;37.840;2023-04-24T01:22:55;9.98;;;6.03;;
45909;SDS011;31622;55.416;37.840;2023-04-24T01:25:22;10.00;;;6.10;;
45909;SDS011;31622;55.416;37.840;2023-04-24T01:27:49;11.77;;;6.25;;
45909;SDS011;31622;55.416;37.840;2023-04-24T01:30:15;7.68;;;5.93;;
45909;SDS011;31622;55.416;37.840;2023-04-24T01:32:41;9.25;;;5.82;;
45909;SDS011;31622;55.416;37.840;2023-04-24T01:35:09;10.52;;;6.65;;
45909;SDS011;31622;55.416;37.840;2023-04-24T01:37:35;7.90;;;5.90;;
45909;SDS011;31622;55.416;37.840;2023-04-24T01:40:03;8.95;;;6.50;;
45909;SDS011;31622;55.416;37.840;2023-04-24T01:42:30;11.45;;;6.50;;
45909;SDS011;31622;55.416;37.840;2023-04-24T01:44:56;10.05;;;6.25;;
45909;SDS011;31622;55.416;37.840;2023-04-24T01:47:22;11.55;;;6.25;;
45909;SDS011;31622;55.416;37.840;2023-04-24T01:49:50;12.98;;;5.93;;
45909;SDS011;31622;55.416;37.840;2023-04-24T01:52:15;9.73;;;6.50;;
45909;SDS011;31622;55.416;37.840;2023-04-24T01:54:43;10.18;;;6.47;;
45909;SDS011;31622;55.416;37.840;2023-04-24T01:57:08;10.68;;;5.78;;
45909;SDS011;31622;55.416;37.840;2023-04-24T01:59:34;11.88;;;6.53;;
45909;SDS011;31622;55.416;37.840;2023-04-24T02:02:01;8.73;;;5.93;;
45909;SDS011;31622;55.416;37.840;2023-04-24T02:04:28;9.10;;;5.95;;
45909;SDS011;31622;55.416;37.840;2023-04-24T02:06:54;11.30;;;6.88;;
45909;SDS011;31622;55.416;37.840;2023-04-24T02:09:19;12.13;;;8.02;;
45909;SDS011;31622;55.416;37.840;2023-04-24T02:11:45;12.55;;;7.18;;
45909;SDS011;31622;55.416;37.840;2023-04-24T02:14:11;11.50;;;7.45;;
45909;SDS011;31622;55.416;37.840;2023-04-24T02:16:38;9.65;;;6.88;;
45909;SDS011;31622;55.416;37.840;2023-04-24T02:19:04;11.32;;;6.70;;
45909;SDS011;31622;55.416;37.840;2023-04-24T02:21:30;12.20;;;6.25;;
45909;SDS011;31622;55.416;37.840;2023-04-24T02:23:57;9.60;;;6.63;;
45909;SDS011;31622;55.416;37.840;2023-04-24T02:26:22;10.18;;;6.38;;
45909;SDS011;31622;55.416;37.840;2023-04-24T02:28:50;11.43;;;7.15;;
45909;SDS011;31622;55.416;37.840;2023-04-24T02:31:18;11.38;;;6.75;;
45909;SDS011;31622;55.416;37.840;2023-04-24T02:33:43;10.02;;;6.45;;
45909;SDS011;31622;55.416;37.840;2023-04-24T02:36:09;10.38;;;6.65;;
45909;SDS011;31622;55.416;37.840;2023-04-24T02:38:35;10.35;;;6.38;;
45909;SDS011;31622;55.416;37.840;2023-04-24T02:41:01;12.80;;;6.85;;
45909;SDS011;31622;55.416;37.840;2023-04-24T02:43:27;12.85;;;7.40;;
45909;SDS011;31622;55.416;37.840;2023-04-24T02:45:53;14.35;;;7.00;;
45909;SDS011;31622;55.416;37.840;2023-04-24T02:48:19;12.88;;;7.03;;
45909;SDS011;31622;55.416;37.840;2023-04-24T02:50:46;9.20;;;6.60;;
45909;SDS011;31622;55.416;37.840;2023-04-24T02:53:11;11.05;;;6.47;;
45909;SDS011;31622;55.416;37.840;2023-04-24T02:55:37;11.73;;;6.75;;
45909;SDS011;31622;55.416;37.840;2023-04-24T02:58:03;13.48;;;6.65;;
45909;SDS011;31622;55.416;37.840;2023-04-24T03:00:29;11.30;;;6.78;;
45909;SDS011;31622;55.416;37.840;2023-04-24T03:02:55;14.52;;;6.53;;
45909;SDS011;31622;55.416;37.840;2023-04-24T03:05:21;13.10;;;6.90;;
45909;SDS011;31622;55.416;37.840;2023-04-24T03:07:46;11.05;;;7.00;;
45909;SDS011;31622;55.416;37.840;2023-04-24T03:10:12;20.70;;;6.72;;
45909;SDS011;31622;55.416;37.840;2023-04-24T03:12:38;9.68;;;6.68;;
45909;SDS011;31622;55.416;37.840;2023-04-24T03:15:04;10.82;;;6.55;;
45909;SDS011;31622;55.416;37.840;2023-04-24T03:17:30;10.88;;;6.70;;
45909;SDS011;31622;55.416;37.840;2023-04-24T03:19:56;11.18;;;7.22;;
45909;SDS011;31622;55.416;37.840;2023-04-24T03:22:22;17.27;;;7.13;;
45909;SDS011;31622;55.416;37.840;2023-04-24T03:24:47;16.15;;;7.25;;
45909;SDS011;31622;55.416;37.840;2023-04-24T03:27:16;13.45;;;6.68;;
45909;SDS011;31622;55.416;37.840;2023-04-24T03:29:58;11.30;;;6.65;;
45909;SDS011;31622;55.416;37.840;2023-04-24T03:32:31;10.63;;;6.50;;
45909;SDS011;31622;55.416;37.840;2023-04-24T03:34:57;11.27;;;6.80;;
45909;SDS011;31622;55.416;37.840;2023-04-24T03:37:24;10.40;;;6.25;;
45909;SDS011;31622;55.416;37.840;2023-04-24T03:40:01;10.88;;;6.50;;
45909;SDS011;31622;55.416;37.840;2023-04-24T03:42:27;8.85;;;6.07;;
45909;SDS011;31622;55.416;37.840;2023-04-24T03:44:54;13.32;;;6.15;;
45909;SDS011;31622;55.416;37.840;2023-04-24T03:47:24;11.52;;;6.57;;
45909;SDS011;31622;55.416;37.840;2023-04-24T03:49:51;14.88;;;6.70;;
45909;SDS011;31622;55.416;37.840;2023-04-24T03:52:17;11.55;;;6.40;;
45909;SDS011;31622;55.416;37.840;2023-04-24T03:54:43;10.07;;;6.05;;
45909;SDS011;31622;55.416;37.840;2023-04-24T03:57:10;14.73;;;6.00;;
45909;SDS011;31622;55.416;37.840;2023-04-24T03:59:42;12.23;;;6.10;;
45909;SDS011;31622;55.416;37.840;2023-04-24T04:02:13;11.13;;;6.35;;
45909;SDS011;31622;55.416;37.840;2023-04-24T04:04:38;10.68;;;7.28;;
45909;SDS011;31622;55.416;37.840;2023-04-24T04:07:04;9.43;;;6.13;;
45909;SDS011;31622;55.416;37.840;2023-04-24T04:09:30;13.38;;;6.85;;
45909;SDS011;31622;55.416;37.840;2023-04-24T04:11:57;10.45;;;6.63;;
45909;SDS011;31622;55.416;37.840;2023-04-24T04:14:23;10.32;;;6.30;;
45909;SDS011;31622;55.416;37.840;2023-04-24T04:16:49;10.77;;;6.70;;
45909;SDS011;31622;55.416;37.840;2023-04-24T04:19:14;11.32;;;6.32;;
45909;SDS011;31622;55.416;37.840;2023-04-24T04:21:40;8.60;;;6.30;;
45909;SDS011;31622;55.416;37.840;2023-04-24T04:24:22;9.70;;;6.10;;
45909;SDS011;31622;55.416;37.840;2023-04-24T04:26:49;10.52;;;5.57;;
45909;SDS011;31622;55.416;37.840;2023-04-24T04:29:23;11.07;;;6.70;;
45909;SDS011;31622;55.416;37.840;2023-04-24T04:31:50;11.35;;;6.38;;
45909;SDS011;31622;55.416;37.840;2023-04-24T04:34:16;14.70;;;6.25;;
45909;SDS011;31622;55.416;37.840;2023-04-24T04:36:42;9.05;;;6.25;;
45909;SDS011;31622;55.416;37.840;2023-04-24T04:39:37;8.55;;;6.13;;
45909;SDS011;31622;55.416;37.840;2023-04-24T04:42:09;9.80;;;6.30;;
45909;SDS011;31622;55.416;37.840;2023-04-24T04:44:39;14.60;;;6.38;;
45909;SDS011;31622;55.416;37.840;2023-04-24T04:47:06;9.63;;;6.15;;
45909;SDS011;31622;55.416;37.840;2023-04-24T04:49:35;9.20;;;5.53;;
45909;SDS011;31622;55.416;37.840;2023-04-24T04:52:04;10.32;;;5.90;;
45909;SDS011;31622;55.416;37.840;2023-04-24T04:54:30;11.25;;;5.72;;
45909;SDS011;31622;55.416;37.840;2023-04-24T04:56:56;9.43;;;5.88;;
45909;SDS011;31622;55.416;37.840;2023-04-24T04:59:22;10.73;;;5.70;;
45909;SDS011;31622;55.416;37.840;2023-04-24T05:01:54;8.05;;;5.50;;
45909;SDS011;31622;55.416;37.840;2023-04-24T05:04:21;8.73;;;6.10;;
45909;SDS011;31622;55.416;37.840;2023-04-24T05:06:47;11.05;;;5.70;;
45909;SDS011;31622;55.416;37.840;2023-04-24T05:09:13;8.55;;;5.47;;
45909;SDS011;31622;55.416;37.840;2023-04-24T05:11:47;10.07;;;5.45;;
45909;SDS011;31622;55.416;37.840;2023-04-24T05:14:13;7.22;;;4.72;;
45909;SDS011;31622;55.416;37.840;2023-04-24T05:16:39;13.88;;;6.72;;
45909;SDS011;31622;55.416;37.840;2023-04-24T05:19:07;10.20;;;6.40;;
45909;SDS011;31622;55.416;37.840;2023-04-24T05:21:37;9.07;;;6.22;;
45909;SDS011;31622;55.416;37.840;2023-04-24T05:24:04;11.15;;;5.82;;
45909;SDS011;31622;55.416;37.840;2023-04-24T05:26:46;11.35;;;5.30;;
45909;SDS011;31622;55.416;37.840;2023-04-24T05:29:14;8.43;;;5.10;;
45909;SDS011;31622;55.416;37.840;2023-04-24T05:31:41;12.35;;;5.38;;
45909;SDS011;31622;55.416;37.840;2023-04-24T05:34:07;9.73;;;4.10;;
45909;SDS011;31622;55.416;37.840;2023-04-24T05:36:37;6.93;;;4.20;;
45909;SDS011;31622;55.416;37.840;2023-04-24T05:39:03;10.15;;;4.55;;
45909;SDS011;31622;55.416;37.840;2023-04-24T05:41:30;9.00;;;4.43;;
45909;SDS011;31622;55.416;37.840;2023-04-24T05:43:56;6.35;;;4.43;;
45909;SDS011;31622;55.416;37.840;2023-04-24T05:46:21;7.00;;;4.43;;
45909;SDS011;31622;55.416;37.840;2023-04-24T05:48:47;9.45;;;4.47;;
45909;SDS011;31622;55.416;37.840;2023-04-24T05:51:13;6.28;;;3.80;;
45909;SDS011;31622;55.416;37.840;2023-04-24T05:53:39;7.88;;;4.07;;
45909;SDS011;31622;55.416;37.840;2023-04-24T05:56:05;7.43;;;4.47;;
45909;SDS011;31622;55.416;37.840;2023-04-24T05:58:31;7.95;;;4.20;;
45909;SDS011;31622;55.416;37.840;2023-04-24T06:00:58;13.80;;;4.38;;
45909;SDS011;31622;55.416;37.840;2023-04-24T06:03:26;7.30;;;3.72;;
45909;SDS011;31622;55.416;37.840;2023-04-24T06:05:52;6.18;;;3.67;;
45909;SDS011;31622;55.416;37.840;2023-04-24T06:08:20;12.18;;;3.67;;
45909;SDS011;31622;55.416;37.840;2023-04-24T06:10:47;5.80;;;3.70;;
45909;SDS011;31622;55.416;37.840;2023-04-24T06:13:14;5.28;;;3.50;;
45909;SDS011;31622;55.416;37.840;2023-04-24T06:15:49;5.50;;;3.92;;
45909;SDS011;31622;55.416;37.840;2023-04-24T06:18:20;5.78;;;3.58;;
45909;SDS011;31622;55.416;37.840;2023-04-24T06:20:47;5.05;;;3.45;;
45909;SDS011;31622;55.416;37.840;2023-04-24T06:23:13;8.00;;;3.97;;
45909;SDS011;31622;55.416;37.840;2023-04-24T06:25:38;6.82;;;3.83;;
45909;SDS011;31622;55.416;37.840;2023-04-24T06:28:04;5.45;;;3.72;;
45909;SDS011;31622;55.416;37.840;2023-04-24T06:30:30;6.88;;;3.50;;
45909;SDS011;31622;55.416;37.840;2023-04-24T06:32:56;5.78;;;4.00;;
45909;SDS011;31622;55.416;37.840;2023-04-24T06:35:22;8.85;;;3.40;;
45909;SDS011;31622;55.416;37.840;2023-04-24T06:37:48;5.28;;;3.63;;
45909;SDS011;31622;55.416;37.840;2023-04-24T06:40:14;8.07;;;3.72;;
45909;SDS011;31622;55.416;37.840;2023-04-24T06:42:40;5.88;;;3.50;;
45909;SDS011;31622;55.416;37.840;2023-04-24T06:45:07;5.13;;;3.10;;
45909;SDS011;31622;55.416;37.840;2023-04-24T06:47:33;5.78;;;3.42;;
45909;SDS011;31622;55.416;37.840;2023-04-24T06:49:59;6.63;;;3.38;;
45909;SDS011;31622;55.416;37.840;2023-04-24T06:52:25;7.03;;;4.10;;
45909;SDS011;31622;55.416;37.840;2023-04-24T06:54:51;14.77;;;5.63;;
45909;SDS011;31622;55.416;37.840;2023-04-24T06:57:17;23.75;;;7.22;;
45909;SDS011;31622;55.416;37.840;2023-04-24T06:59:43;18.20;;;7.18;;
45909;SDS011;31622;55.416;37.840;2023-04-24T07:02:08;19.90;;;7.28;;
45909;SDS011;31622;55.416;37.840;2023-04-24T07:04:34;11.88;;;5.53;;
45909;SDS011;31622;55.416;37.840;2023-04-24T07:07:00;10.60;;;5.53;;
45909;SDS011;31622;55.416;37.840;2023-04-24T07:09:26;10.35;;;4.35;;
45909;SDS011;31622;55.416;37.840;2023-04-24T07:11:52;16.40;;;4.70;;
45909;SDS011;31622;55.416;37.840;2023-04-24T07:14:18;10.13;;;3.70;;
45909;SDS011;31622;55.416;37.840;2023-04-24T07:16:45;9.73;;;3.15;;
45909;SDS011;31622;55.416;37.840;2023-04-24T07:19:12;7.43;;;3.30;;
45909;SDS011;31622;55.416;37.840;2023-04-24T07:21:38;6.07;;;3.05;;
45909;SDS011;31622;55.416;37.840;2023-04-24T07:24:04;16.63;;;6.28;;
45909;SDS011;31622;55.416;37.840;2023-04-24T07:26:30;32.13;;;11.82;;
45909;SDS011;31622;55.416;37.840;2023-04-24T07:28:56;151.40;;;32.70;;
45909;SDS011;31622;55.416;37.840;2023-04-24T07:31:22;196.75;;;42.15;;
45909;SDS011;31622;55.416;37.840;2023-04-24T07:33:48;33.67;;;8.52;;
45909;SDS011;31622;55.416;37.840;2023-04-24T07:36:13;14.75;;;4.70;;
45909;SDS011;31622;55.416;37.840;2023-04-24T07:38:44;12.82;;;4.85;;
45909;SDS011;31622;55.416;37.840;2023-04-24T07:41:10;11.32;;;3.42;;
45909;SDS011;31622;55.416;37.840;2023-04-24T07:43:37;12.25;;;3.88;;
45909;SDS011;31622;55.416;37.840;2023-04-24T07:46:03;8.50;;;3.25;;
45909;SDS011;31622;55.416;37.840;2023-04-24T07:48:28;8.13;;;3.88;;
45909;SDS011;31622;55.416;37.840;2023-04-24T07:50:54;5.53;;;3.00;;
45909;SDS011;31622;55.416;37.840;2023-04-24T07:53:20;7.50;;;2.97;;
45909;SDS011;31622;55.416;37.840;2023-04-24T07:55:46;11.00;;;3.60;;
45909;SDS011;31622;55.416;37.840;2023-04-24T07:58:11;4.53;;;3.30;;
45909;SDS011;31622;55.416;37.840;2023-04-24T08:00:37;9.82;;;3.47;;
45909;SDS011;31622;55.416;37.840;2023-04-24T08:03:03;5.32;;;3.10;;
45909;SDS011;31622;55.416;37.840;2023-04-24T08:05:29;4.68;;;3.38;;
45909;SDS011;31622;55.416;37.840;2023-04-24T08:07:54;5.38;;;2.97;;
45909;SDS011;31622;55.416;37.840;2023-04-24T08:10:23;5.50;;;2.90;;
45909;SDS011;31622;55.416;37.840;2023-04-24T08:12:50;3.95;;;3.08;;
45909;SDS011;31622;55.416;37.840;2023-04-24T08:15:16;6.25;;;3.25;;
45909;SDS011;31622;55.416;37.840;2023-04-24T08:17:42;4.75;;;3.38;;
45909;SDS011;31622;55.416;37.840;2023-04-24T08:20:08;7.75;;;3.22;;
45909;SDS011;31622;55.416;37.840;2023-04-24T08:22:42;12.65;;;3.60;;
45909;SDS011;31622;55.416;37.840;2023-04-24T08:25:08;8.27;;;3.45;;
45909;SDS011;31622;55.416;37.840;2023-04-24T08:27:34;4.93;;;3.10;;
45909;SDS011;31622;55.416;37.840;2023-04-24T08:30:02;5.32;;;3.08;;
45909;SDS011;31622;55.416;37.840;2023-04-24T08:32:28;6.10;;;3.78;;
45909;SDS011;31622;55.416;37.840;2023-04-24T08:34:55;6.85;;;2.88;;
45909;SDS011;31622;55.416;37.840;2023-04-24T08:37:22;6.05;;;2.90;;
45909;SDS011;31622;55.416;37.840;2023-04-24T08:39:48;6.72;;;3.10;;
45909;SDS011;31622;55.416;37.840;2023-04-24T08:42:14;6.63;;;2.90;;
45909;SDS011;31622;55.416;37.840;2023-04-24T08:44:41;6.50;;;3.00;;
45909;SDS011;31622;55.416;37.840;2023-04-24T08:47:07;4.57;;;2.50;;
45909;SDS011;31622;55.416;37.840;2023-04-24T08:49:33;3.40;;;2.63;;
45909;SDS011;31622;55.416;37.840;2023-04-24T08:51:59;6.70;;;3.22;;
45909;SDS011;31622;55.416;37.840;2023-04-24T08:54:25;7.10;;;3.28;;
45909;SDS011;31622;55.416;37.840;2023-04-24T08:56:51;8.43;;;3.17;;
45909;SDS011;31622;55.416;37.840;2023-04-24T08:59:19;5.70;;;3.33;;
45909;SDS011;31622;55.416;37.840;2023-04-24T09:03:00;5.70;;;2.70;;
45909;SDS011;31622;55.416;37.840;2023-04-24T09:05:26;8.07;;;3.00;;
45909;SDS011;31622;55.416;37.840;2023-04-24T09:07:55;5.63;;;3.53;;
45909;SDS011;31622;55.416;37.840;2023-04-24T09:10:22;5.47;;;2.90;;
45909;SDS011;31622;55.416;37.840;2023-04-24T09:12:49;5.80;;;2.63;;
45909;SDS011;31622;55.416;37.840;2023-04-24T09:15:16;4.43;;;2.55;;
45909;SDS011;31622;55.416;37.840;2023-04-24T09:17:42;4.72;;;2.65;;
45909;SDS011;31622;55.416;37.840;2023-04-24T09:20:08;8.23;;;3.05;;
45909;SDS011;31622;55.416;37.840;2023-04-24T09:22:34;5.47;;;2.88;;
45909;SDS011;31622;55.416;37.840;2023-04-24T09:25:03;7.38;;;2.90;;
45909;SDS011;31622;55.416;37.840;2023-04-24T09:27:32;3.45;;;2.38;;
45909;SDS011;31622;55.416;37.840;2023-04-24T09:29:58;5.63;;;2.75;;
45909;SDS011;31622;55.416;37.840;2023-04-24T09:32:25;6.78;;;2.80;;
45909;SDS011;31622;55.416;37.840;2023-04-24T09:37:35;7.32;;;2.70;;
45909;SDS011;31622;55.416;37.840;2023-04-24T09:40:09;6.18;;;2.67;;
45909;SDS011;31622;55.416;37.840;2023-04-24T09:42:39;4.35;;;2.40;;
45909;SDS011;31622;55.416;37.840;2023-04-24T09:45:09;3.88;;;2.40;;
45909;SDS011;31622;55.416;37.840;2023-04-24T09:47:38;4.97;;;3.10;;
45909;SDS011;31622;55.416;37.840;2023-04-24T09:52:39;4.50;;;2.50;;
45909;SDS011;31622;55.416;37.840;2023-04-24T09:55:16;5.20;;;2.30;;
45909;SDS011;31622;55.416;37.840;2023-04-24T09:57:50;3.25;;;2.35;;
45909;SDS011;31622;55.416;37.840;2023-04-24T10:00:24;6.40;;;2.30;;
45909;SDS011;31622;55.416;37.840;2023-04-24T10:02:54;9.02;;;2.72;;
45909;SDS011;31622;55.416;37.840;2023-04-24T10:05:23;19.30;;;4.03;;
45909;SDS011;31622;55.416;37.840;2023-04-24T10:07:51;6.82;;;2.70;;
45909;SDS011;31622;55.416;37.840;2023-04-24T10:10:16;10.88;;;2.85;;
45909;SDS011;31622;55.416;37.840;2023-04-24T10:12:42;10.85;;;2.70;;
45909;SDS011;31622;55.416;37.840;2023-04-24T10:15:09;8.32;;;2.83;;
45909;SDS011;31622;55.416;37.840;2023-04-24T10:17:37;6.90;;;2.53;;
45909;SDS011;31622;55.416;37.840;2023-04-24T10:20:04;5.10;;;2.50;;
45909;SDS011;31622;55.416;37.840;2023-04-24T10:22:32;6.97;;;2.47;;
45909;SDS011;31622;55.416;37.840;2023-04-24T10:24:58;5.47;;;2.55;;
45909;SDS011;31622;55.416;37.840;2023-04-24T10:27:25;6.22;;;2.80;;
45909;SDS011;31622;55.416;37.840;2023-04-24T10:29:52;5.97;;;2.20;;
45909;SDS011;31622;55.416;37.840;2023-04-24T10:32:18;4.05;;;2.70;;
45909;SDS011;31622;55.416;37.840;2023-04-24T10:34:44;4.80;;;2.40;;
45909;SDS011;31622;55.416;37.840;2023-04-24T10:37:10;6.28;;;2.90;;
45909;SDS011;31622;55.416;37.840;2023-04-24T10:39:35;3.95;;;2.60;;
45909;SDS011;31622;55.416;37.840;2023-04-24T10:42:13;6.03;;;2.53;;
45909;SDS011;31622;55.416;37.840;2023-04-24T10:44:40;4.93;;;2.65;;
45909;SDS011;31622;55.416;37.840;2023-04-24T10:47:07;5.15;;;2.53;;
45909;SDS011;31622;55.416;37.840;2023-04-24T10:49:38;3.58;;;2.40;;
45909;SDS011;31622;55.416;37.840;2023-04-24T10:52:04;3.83;;;2.80;;
45909;SDS011;31622;55.416;37.840;2023-04-24T10:54:40;4.40;;;2.45;;
45909;SDS011;31622;55.416;37.840;2023-04-24T10:59:43;5.22;;;2.58;;
45909;SDS011;31622;55.416;37.840;2023-04-24T11:02:09;7.70;;;2.92;;
45909;SDS011;31622;55.416;37.840;2023-04-24T11:04:35;5.07;;;2.22;;
45909;SDS011;31622;55.416;37.840;2023-04-24T11:07:04;5.93;;;2.53;;
45909;SDS011;31622;55.416;37.840;2023-04-24T11:09:31;3.95;;;2.25;;
45909;SDS011;31622;55.416;37.840;2023-04-24T11:12:04;4.07;;;2.50;;
45909;SDS011;31622;55.416;37.840;2023-04-24T11:17:30;7.22;;;2.20;;
45909;SDS011;31622;55.416;37.840;2023-04-24T11:20:04;8.40;;;2.00;;
45909;SDS011;31622;55.416;37.840;2023-04-24T11:22:32;3.95;;;2.22;;
45909;SDS011;31622;55.416;37.840;2023-04-24T11:25:00;8.32;;;2.53;;
45909;SDS011;31622;55.416;37.840;2023-04-24T11:30:05;4.32;;;2.30;;
45909;SDS011;31622;55.416;37.840;2023-04-24T11:32:41;3.88;;;2.20;;
45909;SDS011;31622;55.416;37.840;2023-04-24T11:35:14;5.93;;;2.47;;
45909;SDS011;31622;55.416;37.840;2023-04-24T11:37:45;4.55;;;2.25;;
45909;SDS011;31622;55.416;37.840;2023-04-24T11:40:12;5.57;;;2.42;;
45909;SDS011;31622;55.416;37.840;2023-04-24T11:42:44;4.33;;;1.90;;
45909;SDS011;31622;55.416;37.840;2023-04-24T11:45:14;5.93;;;2.58;;
45909;SDS011;31622;55.416;37.840;2023-04-24T11:47:41;11.25;;;2.72;;
45909;SDS011;31622;55.416;37.840;2023-04-24T11:50:08;8.85;;;2.28;;
45909;SDS011;31622;55.416;37.840;2023-04-24T11:52:39;7.57;;;2.40;;
45909;SDS011;31622;55.416;37.840;2023-04-24T11:55:27;16.83;;;3.60;;
45909;SDS011;31622;55.416;37.840;2023-04-24T11:57:53;8.32;;;2.63;;
45909;SDS011;31622;55.416;37.840;2023-04-24T12:02:48;4.78;;;2.30;;
45909;SDS011;31622;55.416;37.840;2023-04-24T12:05:25;3.10;;;2.30;;
45909;SDS011;31622;55.416;37.840;2023-04-24T12:07:52;3.92;;;2.63;;
45909;SDS011;31622;55.416;37.840;2023-04-24T12:10:22;5.85;;;2.33;;
45909;SDS011;31622;55.416;37.840;2023-04-24T12:12:52;6.82;;;2.58;;
45909;SDS011;31622;55.416;37.840;2023-04-24T12:15:19;3.50;;;2.35;;
45909;SDS011;31622;55.416;37.840;2023-04-24T12:17:45;6.18;;;2.60;;
45909;SDS011;31622;55.416;37.840;2023-04-24T12:20:11;4.25;;;2.30;;
45909;SDS011;31622;55.416;37.840;2023-04-24T12:25:12;4.82;;;2.50;;
45909;SDS011;31622;55.416;37.840;2023-04-24T12:27:39;4.80;;;2.63;;
45909;SDS011;31622;55.416;37.840;2023-04-24T12:30:05;3.45;;;2.40;;
45909;SDS011;31622;55.416;37.840;2023-04-24T12:32:40;3.92;;;2.53;;
45909;SDS011;31622;55.416;37.840;2023-04-24T12:35:06;4.38;;;2.95;;
45909;SDS011;31622;55.416;37.840;2023-04-24T12:37:33;5.32;;;2.95;;
45909;SDS011;31622;55.416;37.840;2023-04-24T12:42:47;5.95;;;2.58;;
45909;SDS011;31622;55.416;37.840;2023-04-24T12:45:16;7.20;;;2.60;;
45909;SDS011;31622;55.416;37.840;2023-04-24T12:47:43;9.25;;;3.05;;
45909;SDS011;31622;55.416;37.840;2023-04-24T12:50:10;7.72;;;2.50;;
45909;SDS011;31622;55.416;37.840;2023-04-24T12:52:36;5.60;;;2.70;;
45909;SDS011;31622;55.416;37.840;2023-04-24T12:55:03;7.18;;;2.95;;
45909;SDS011;31622;55.416;37.840;2023-04-24T12:57:30;5.22;;;2.55;;
45909;SDS011;31622;55.416;37.840;2023-04-24T12:59:57;6.25;;;2.70;;
45909;SDS011;31622;55.416;37.840;2023-04-24T13:02:24;5.00;;;2.53;;
45909;SDS011;31622;55.416;37.840;2023-04-24T13:04:50;5.47;;;2.55;;
45909;SDS011;31622;55.416;37.840;2023-04-24T13:07:16;3.85;;;2.30;;
45909;SDS011;31622;55.416;37.840;2023-04-24T13:09:42;6.40;;;2.47;;
45909;SDS011;31622;55.416;37.840;2023-04-24T13:12:09;4.47;;;2.90;;
45909;SDS011;31622;55.416;37.840;2023-04-24T13:14:35;9.70;;;2.50;;
45909;SDS011;31622;55.416;37.840;2023-04-24T13:17:01;3.97;;;2.15;;
45909;SDS011;31622;55.416;37.840;2023-04-24T13:19:28;5.93;;;2.40;;
45909;SDS011;31622;55.416;37.840;2023-04-24T13:21:54;3.70;;;1.90;;
45909;SDS011;31622;55.416;37.840;2023-04-24T13:24:21;6.45;;;2.10;;
45909;SDS011;31622;55.416;37.840;2023-04-24T13:26:50;8.05;;;2.50;;
45909;SDS011;31622;55.416;37.840;2023-04-24T13:29:16;4.47;;;2.42;;
45909;SDS011;31622;55.416;37.840;2023-04-24T13:31:42;3.83;;;2.33;;
45909;SDS011;31622;55.416;37.840;2023-04-24T13:34:08;5.07;;;2.28;;
45909;SDS011;31622;55.416;37.840;2023-04-24T13:36:34;5.97;;;2.70;;
45909;SDS011;31622;55.416;37.840;2023-04-24T13:39:00;6.53;;;2.10;;
45909;SDS011;31622;55.416;37.840;2023-04-24T13:41:26;5.10;;;2.30;;
45909;SDS011;31622;55.416;37.840;2023-04-24T13:43:52;6.30;;;2.40;;
45909;SDS011;31622;55.416;37.840;2023-04-24T13:46:17;6.63;;;2.38;;
45909;SDS011;31622;55.416;37.840;2023-04-24T13:48:43;5.22;;;2.78;;
45909;SDS011;31622;55.416;37.840;2023-04-24T13:51:09;5.82;;;2.50;;
45909;SDS011;31622;55.416;37.840;2023-04-24T13:53:35;5.63;;;2.33;;
45909;SDS011;31622;55.416;37.840;2023-04-24T13:56:03;6.53;;;3.08;;
45909;SDS011;31622;55.416;37.840;2023-04-24T13:58:29;6.30;;;2.75;;
45909;SDS011;31622;55.416;37.840;2023-04-24T14:00:55;4.43;;;2.80;;
45909;SDS011;31622;55.416;37.840;2023-04-24T14:03:21;7.82;;;2.60;;
45909;SDS011;31622;55.416;37.840;2023-04-24T14:05:46;4.07;;;2.80;;
45909;SDS011;31622;55.416;37.840;2023-04-24T14:08:12;7.75;;;2.92;;
45909;SDS011;31622;55.416;37.840;2023-04-24T14:10:38;6.05;;;2.60;;
45909;SDS011;31622;55.416;37.840;2023-04-24T14:13:03;5.93;;;2.63;;
45909;SDS011;31622;55.416;37.840;2023-04-24T14:15:29;7.35;;;3.28;;
45909;SDS011;31622;55.416;37.840;2023-04-24T14:17:55;5.10;;;2.83;;
45909;SDS011;31622;55.416;37.840;2023-04-24T14:20:20;8.98;;;3.00;;
45909;SDS011;31622;55.416;37.840;2023-04-24T14:22:46;6.97;;;3.00;;
45909;SDS011;31622;55.416;37.840;2023-04-24T14:25:12;7.95;;;2.97;;
45909;SDS011;31622;55.416;37.840;2023-04-24T14:27:38;7.82;;;2.85;;
45909;SDS011;31622;55.416;37.840;2023-04-24T14:30:05;6.45;;;2.90;;
45909;SDS011;31622;55.416;37.840;2023-04-24T14:32:31;8.10;;;3.03;;
45909;SDS011;31622;55.416;37.840;2023-04-24T14:34:57;6.85;;;2.75;;
45909;SDS011;31622;55.416;37.840;2023-04-24T14:37:23;3.97;;;2.53;;
45909;SDS011;31622;55.416;37.840;2023-04-24T14:39:49;6.82;;;3.20;;
45909;SDS011;31622;55.416;37.840;2023-04-24T14:42:14;5.18;;;3.00;;
45909;SDS011;31622;55.416;37.840;2023-04-24T14:44:42;6.65;;;3.28;;
45909;SDS011;31622;55.416;37.840;2023-04-24T14:47:07;5.93;;;3.20;;
45909;SDS011;31622;55.416;37.840;2023-04-24T14:49:33;5.68;;;2.88;;
45909;SDS011;31622;55.416;37.840;2023-04-24T14:51:59;7.63;;;2.92;;
45909;SDS011;31622;55.416;37.840;2023-04-24T14:54:25;8.40;;;3.05;;